TEG weather

Tenkodogo Airport
Tenkodogo, Boulgou, Burkina Faso

Public forecast

Using degrees Celsius for public forecast. Weather courtesy of forecast.io.

Closest aviation weather report (METAR) to Tenkodogo Airport

Report is more than 6 hours old.

Closest report is Fada N'gourma Airport, 44.4 nm (82.2 km) ENE. Retrieved 2009/09/21 17:00 UTC (10 years ago):

DFEF 211700Z 00000KT 9999 FEW0226 TCU BKN260 30/25

Closest aviation forecast (TAF) to Tenkodogo Airport

Closest forecast is Ouagadougou Airport, 75.0 nm (138.9 km) WNW. Retrieved 2020/02/18 18:00 UTC (3 hours ago):

TAF DFFD 181700Z 1818/1924 06010KT 8000 NSC TEMPO 1818/1821 4000 HZ TEMPO 1906/1910 3500 HZ